sensor_id;sensor_type;location;lat;lon;timestamp;P1;durP1;ratioP1;P2;durP2;ratioP2
32613;SDS011;19031;51.400;6.770;2023-10-09T00:00:12;53.13;;;22.98;;
32613;SDS011;19031;51.400;6.770;2023-10-09T00:05:43;47.25;;;20.00;;
32613;SDS011;19031;51.400;6.770;2023-10-09T00:08:11;45.90;;;21.58;;
32613;SDS011;19031;51.400;6.770;2023-10-09T00:10:42;52.13;;;22.23;;
32613;SDS011;19031;51.400;6.770;2023-10-09T00:13:18;49.63;;;21.63;;
32613;SDS011;19031;51.400;6.770;2023-10-09T00:15:44;45.63;;;18.13;;
32613;SDS011;19031;51.400;6.770;2023-10-09T00:18:17;45.90;;;20.55;;
32613;SDS011;19031;51.400;6.770;2023-10-09T00:20:47;49.70;;;20.85;;
32613;SDS011;19031;51.400;6.770;2023-10-09T00:23:19;50.53;;;20.17;;
32613;SDS011;19031;51.400;6.770;2023-10-09T00:25:50;43.30;;;20.25;;
32613;SDS011;19031;51.400;6.770;2023-10-09T00:28:35;55.17;;;19.17;;
32613;SDS011;19031;51.400;6.770;2023-10-09T00:31:03;45.60;;;18.20;;
32613;SDS011;19031;51.400;6.770;2023-10-09T00:33:31;39.47;;;18.40;;
32613;SDS011;19031;51.400;6.770;2023-10-09T00:36:04;45.63;;;20.20;;
32613;SDS011;19031;51.400;6.770;2023-10-09T00:38:36;40.15;;;18.48;;
32613;SDS011;19031;51.400;6.770;2023-10-09T00:41:10;39.78;;;17.83;;
32613;SDS011;19031;51.400;6.770;2023-10-09T00:43:37;41.00;;;18.00;;
32613;SDS011;19031;51.400;6.770;2023-10-09T00:46:07;42.97;;;18.48;;
32613;SDS011;19031;51.400;6.770;2023-10-09T00:48:55;50.47;;;19.52;;
32613;SDS011;19031;51.400;6.770;2023-10-09T00:51:23;39.92;;;18.95;;
32613;SDS011;19031;51.400;6.770;2023-10-09T00:53:53;37.55;;;18.00;;
32613;SDS011;19031;51.400;6.770;2023-10-09T00:56:23;42.40;;;18.48;;
32613;SDS011;19031;51.400;6.770;2023-10-09T00:58:52;41.25;;;18.80;;
32613;SDS011;19031;51.400;6.770;2023-10-09T01:01:24;41.90;;;18.60;;
32613;SDS011;19031;51.400;6.770;2023-10-09T01:04:01;39.20;;;19.02;;
32613;SDS011;19031;51.400;6.770;2023-10-09T01:06:40;39.83;;;17.60;;
32613;SDS011;19031;51.400;6.770;2023-10-09T01:09:15;38.78;;;18.05;;
32613;SDS011;19031;51.400;6.770;2023-10-09T01:11:45;43.53;;;18.40;;
32613;SDS011;19031;51.400;6.770;2023-10-09T01:14:22;35.35;;;17.35;;
32613;SDS011;19031;51.400;6.770;2023-10-09T01:16:48;43.03;;;18.05;;
32613;SDS011;19031;51.400;6.770;2023-10-09T01:19:13;35.50;;;16.63;;
32613;SDS011;19031;51.400;6.770;2023-10-09T01:21:49;36.55;;;17.23;;
32613;SDS011;19031;51.400;6.770;2023-10-09T01:24:15;39.20;;;17.88;;
32613;SDS011;19031;51.400;6.770;2023-10-09T01:26:42;45.92;;;17.00;;
32613;SDS011;19031;51.400;6.770;2023-10-09T01:29:12;40.63;;;17.85;;
32613;SDS011;19031;51.400;6.770;2023-10-09T01:31:48;47.67;;;18.23;;
32613;SDS011;19031;51.400;6.770;2023-10-09T01:34:25;38.30;;;17.42;;
32613;SDS011;19031;51.400;6.770;2023-10-09T01:37:08;45.42;;;17.90;;
32613;SDS011;19031;51.400;6.770;2023-10-09T01:39:47;34.25;;;16.95;;
32613;SDS011;19031;51.400;6.770;2023-10-09T01:42:14;31.90;;;16.45;;
32613;SDS011;19031;51.400;6.770;2023-10-09T01:44:55;33.60;;;15.48;;
32613;SDS011;19031;51.400;6.770;2023-10-09T01:47:23;33.55;;;16.23;;
32613;SDS011;19031;51.400;6.770;2023-10-09T01:49:50;32.97;;;15.35;;
32613;SDS011;19031;51.400;6.770;2023-10-09T01:52:18;39.95;;;16.33;;
32613;SDS011;19031;51.400;6.770;2023-10-09T01:54:45;37.88;;;15.50;;
32613;SDS011;19031;51.400;6.770;2023-10-09T01:57:16;28.60;;;14.93;;
32613;SDS011;19031;51.400;6.770;2023-10-09T01:59:47;30.65;;;15.02;;
32613;SDS011;19031;51.400;6.770;2023-10-09T02:02:15;34.88;;;14.68;;
32613;SDS011;19031;51.400;6.770;2023-10-09T02:07:37;30.65;;;14.63;;
32613;SDS011;19031;51.400;6.770;2023-10-09T02:10:12;27.63;;;15.13;;
32613;SDS011;19031;51.400;6.770;2023-10-09T02:13:03;34.85;;;14.57;;
32613;SDS011;19031;51.400;6.770;2023-10-09T02:15:36;24.98;;;12.93;;
32613;SDS011;19031;51.400;6.770;2023-10-09T02:18:08;30.85;;;14.27;;
32613;SDS011;19031;51.400;6.770;2023-10-09T02:21:03;30.63;;;13.75;;
32613;SDS011;19031;51.400;6.770;2023-10-09T02:23:34;31.70;;;14.52;;
32613;SDS011;19031;51.400;6.770;2023-10-09T02:26:09;30.65;;;15.55;;
32613;SDS011;19031;51.400;6.770;2023-10-09T02:28:45;31.17;;;14.48;;
32613;SDS011;19031;51.400;6.770;2023-10-09T02:31:18;28.65;;;13.82;;
32613;SDS011;19031;51.400;6.770;2023-10-09T02:33:47;27.73;;;12.98;;
32613;SDS011;19031;51.400;6.770;2023-10-09T02:36:15;27.65;;;14.50;;
32613;SDS011;19031;51.400;6.770;2023-10-09T02:38:41;29.15;;;13.57;;
32613;SDS011;19031;51.400;6.770;2023-10-09T02:41:08;27.33;;;13.02;;
32613;SDS011;19031;51.400;6.770;2023-10-09T02:43:36;29.95;;;14.35;;
32613;SDS011;19031;51.400;6.770;2023-10-09T02:46:16;22.10;;;12.48;;
32613;SDS011;19031;51.400;6.770;2023-10-09T02:48:43;33.95;;;15.85;;
32613;SDS011;19031;51.400;6.770;2023-10-09T02:51:13;29.92;;;14.60;;
32613;SDS011;19031;51.400;6.770;2023-10-09T02:53:50;29.75;;;13.63;;
32613;SDS011;19031;51.400;6.770;2023-10-09T02:56:17;28.27;;;13.63;;
32613;SDS011;19031;51.400;6.770;2023-10-09T02:58:48;27.50;;;14.07;;
32613;SDS011;19031;51.400;6.770;2023-10-09T03:01:17;29.52;;;14.35;;
32613;SDS011;19031;51.400;6.770;2023-10-09T03:03:43;29.77;;;14.55;;
32613;SDS011;19031;51.400;6.770;2023-10-09T03:06:15;27.80;;;13.77;;
32613;SDS011;19031;51.400;6.770;2023-10-09T03:08:53;32.63;;;14.98;;
32613;SDS011;19031;51.400;6.770;2023-10-09T03:11:19;25.48;;;14.90;;
32613;SDS011;19031;51.400;6.770;2023-10-09T03:13:45;28.75;;;13.85;;
32613;SDS011;19031;51.400;6.770;2023-10-09T03:16:12;27.13;;;14.73;;
32613;SDS011;19031;51.400;6.770;2023-10-09T03:18:45;25.60;;;14.05;;
32613;SDS011;19031;51.400;6.770;2023-10-09T03:21:14;27.67;;;14.85;;
32613;SDS011;19031;51.400;6.770;2023-10-09T03:23:41;27.38;;;13.77;;
32613;SDS011;19031;51.400;6.770;2023-10-09T03:26:08;24.67;;;14.30;;
32613;SDS011;19031;51.400;6.770;2023-10-09T03:28:34;31.67;;;13.85;;
32613;SDS011;19031;51.400;6.770;2023-10-09T03:31:01;26.00;;;13.57;;
32613;SDS011;19031;51.400;6.770;2023-10-09T03:33:27;24.67;;;13.50;;
32613;SDS011;19031;51.400;6.770;2023-10-09T03:35:57;25.10;;;12.60;;
32613;SDS011;19031;51.400;6.770;2023-10-09T03:38:24;26.45;;;13.38;;
32613;SDS011;19031;51.400;6.770;2023-10-09T03:40:54;28.42;;;13.00;;
32613;SDS011;19031;51.400;6.770;2023-10-09T03:43:19;23.65;;;12.98;;
32613;SDS011;19031;51.400;6.770;2023-10-09T03:45:46;25.92;;;12.93;;
32613;SDS011;19031;51.400;6.770;2023-10-09T03:48:17;32.65;;;12.38;;
32613;SDS011;19031;51.400;6.770;2023-10-09T03:50:57;26.00;;;11.80;;
32613;SDS011;19031;51.400;6.770;2023-10-09T03:53:38;23.30;;;12.13;;
32613;SDS011;19031;51.400;6.770;2023-10-09T03:56:08;22.85;;;12.55;;
32613;SDS011;19031;51.400;6.770;2023-10-09T03:58:40;24.83;;;11.95;;
32613;SDS011;19031;51.400;6.770;2023-10-09T04:01:10;21.33;;;11.45;;
32613;SDS011;19031;51.400;6.770;2023-10-09T04:03:47;23.45;;;12.05;;
32613;SDS011;19031;51.400;6.770;2023-10-09T04:06:13;25.52;;;12.20;;
32613;SDS011;19031;51.400;6.770;2023-10-09T04:08:42;25.77;;;11.85;;
32613;SDS011;19031;51.400;6.770;2023-10-09T04:11:13;22.90;;;12.07;;
32613;SDS011;19031;51.400;6.770;2023-10-09T04:13:42;23.33;;;11.77;;
32613;SDS011;19031;51.400;6.770;2023-10-09T04:16:11;23.17;;;10.40;;
32613;SDS011;19031;51.400;6.770;2023-10-09T04:18:52;21.67;;;10.80;;
32613;SDS011;19031;51.400;6.770;2023-10-09T04:21:21;20.92;;;11.27;;
32613;SDS011;19031;51.400;6.770;2023-10-09T04:24:00;20.90;;;11.43;;
32613;SDS011;19031;51.400;6.770;2023-10-09T04:26:39;23.48;;;10.90;;
32613;SDS011;19031;51.400;6.770;2023-10-09T04:29:15;20.90;;;11.05;;
32613;SDS011;19031;51.400;6.770;2023-10-09T04:32:02;21.63;;;11.25;;
32613;SDS011;19031;51.400;6.770;2023-10-09T04:34:32;23.25;;;11.90;;
32613;SDS011;19031;51.400;6.770;2023-10-09T04:37:02;20.40;;;11.40;;
32613;SDS011;19031;51.400;6.770;2023-10-09T04:39:41;21.60;;;11.43;;
32613;SDS011;19031;51.400;6.770;2023-10-09T04:42:15;24.27;;;11.68;;
32613;SDS011;19031;51.400;6.770;2023-10-09T04:44:44;20.15;;;11.20;;
32613;SDS011;19031;51.400;6.770;2023-10-09T04:47:30;22.23;;;11.73;;
32613;SDS011;19031;51.400;6.770;2023-10-09T04:50:07;16.83;;;10.80;;
32613;SDS011;19031;51.400;6.770;2023-10-09T04:52:39;23.80;;;11.20;;
32613;SDS011;19031;51.400;6.770;2023-10-09T04:55:06;17.98;;;10.00;;
32613;SDS011;19031;51.400;6.770;2023-10-09T04:57:32;19.83;;;11.63;;
32613;SDS011;19031;51.400;6.770;2023-10-09T05:00:11;20.75;;;11.32;;
32613;SDS011;19031;51.400;6.770;2023-10-09T05:02:50;20.40;;;11.43;;
32613;SDS011;19031;51.400;6.770;2023-10-09T05:05:20;19.95;;;10.20;;
32613;SDS011;19031;51.400;6.770;2023-10-09T05:08:04;19.20;;;10.82;;
32613;SDS011;19031;51.400;6.770;2023-10-09T05:10:52;18.63;;;10.45;;
32613;SDS011;19031;51.400;6.770;2023-10-09T05:13:36;20.70;;;10.30;;
32613;SDS011;19031;51.400;6.770;2023-10-09T05:18:47;19.50;;;10.57;;
32613;SDS011;19031;51.400;6.770;2023-10-09T05:21:33;20.45;;;9.77;;
32613;SDS011;19031;51.400;6.770;2023-10-09T05:24:08;18.92;;;10.10;;
32613;SDS011;19031;51.400;6.770;2023-10-09T05:26:37;17.20;;;10.40;;
32613;SDS011;19031;51.400;6.770;2023-10-09T05:31:48;23.02;;;10.90;;
32613;SDS011;19031;51.400;6.770;2023-10-09T05:34:32;18.90;;;10.57;;
32613;SDS011;19031;51.400;6.770;2023-10-09T05:37:05;16.85;;;10.43;;
32613;SDS011;19031;51.400;6.770;2023-10-09T05:39:53;19.42;;;11.02;;
32613;SDS011;19031;51.400;6.770;2023-10-09T05:42:29;17.23;;;10.68;;
32613;SDS011;19031;51.400;6.770;2023-10-09T05:45:08;17.58;;;10.40;;
32613;SDS011;19031;51.400;6.770;2023-10-09T05:47:57;19.70;;;10.93;;
32613;SDS011;19031;51.400;6.770;2023-10-09T05:50:43;20.15;;;10.68;;
32613;SDS011;19031;51.400;6.770;2023-10-09T05:53:27;21.20;;;10.70;;
32613;SDS011;19031;51.400;6.770;2023-10-09T05:56:11;19.30;;;10.85;;
32613;SDS011;19031;51.400;6.770;2023-10-09T06:01:39;17.83;;;10.73;;
32613;SDS011;19031;51.400;6.770;2023-10-09T06:04:24;22.55;;;11.57;;
32613;SDS011;19031;51.400;6.770;2023-10-09T06:07:14;28.27;;;12.40;;
32613;SDS011;19031;51.400;6.770;2023-10-09T06:09:47;25.13;;;12.90;;
32613;SDS011;19031;51.400;6.770;2023-10-09T06:12:17;24.77;;;13.60;;
32613;SDS011;19031;51.400;6.770;2023-10-09T06:15:04;22.50;;;13.15;;
32613;SDS011;19031;51.400;6.770;2023-10-09T06:17:49;25.63;;;12.18;;
32613;SDS011;19031;51.400;6.770;2023-10-09T06:20:17;31.27;;;13.32;;
32613;SDS011;19031;51.400;6.770;2023-10-09T06:23:01;23.67;;;12.43;;
32613;SDS011;19031;51.400;6.770;2023-10-09T06:25:41;20.05;;;12.20;;
32613;SDS011;19031;51.400;6.770;2023-10-09T06:28:16;24.35;;;11.23;;
32613;SDS011;19031;51.400;6.770;2023-10-09T06:30:44;20.10;;;11.80;;
32613;SDS011;19031;51.400;6.770;2023-10-09T06:33:12;21.48;;;11.65;;
32613;SDS011;19031;51.400;6.770;2023-10-09T06:35:54;23.30;;;10.82;;
32613;SDS011;19031;51.400;6.770;2023-10-09T06:38:20;20.50;;;11.43;;
32613;SDS011;19031;51.400;6.770;2023-10-09T06:40:58;18.33;;;10.52;;
32613;SDS011;19031;51.400;6.770;2023-10-09T06:43:29;21.98;;;11.20;;
32613;SDS011;19031;51.400;6.770;2023-10-09T06:45:57;23.20;;;10.88;;
32613;SDS011;19031;51.400;6.770;2023-10-09T06:48:28;21.52;;;11.60;;
32613;SDS011;19031;51.400;6.770;2023-10-09T06:51:10;27.02;;;11.98;;
32613;SDS011;19031;51.400;6.770;2023-10-09T06:53:54;21.65;;;11.95;;
32613;SDS011;19031;51.400;6.770;2023-10-09T06:56:21;20.42;;;11.93;;
32613;SDS011;19031;51.400;6.770;2023-10-09T06:58:51;21.83;;;11.85;;
32613;SDS011;19031;51.400;6.770;2023-10-09T07:01:30;23.00;;;11.70;;
32613;SDS011;19031;51.400;6.770;2023-10-09T07:04:13;18.67;;;11.30;;
32613;SDS011;19031;51.400;6.770;2023-10-09T07:07:05;23.20;;;12.38;;
32613;SDS011;19031;51.400;6.770;2023-10-09T07:09:45;18.65;;;11.13;;
32613;SDS011;19031;51.400;6.770;2023-10-09T07:12:33;24.25;;;12.32;;
32613;SDS011;19031;51.400;6.770;2023-10-09T07:15:07;23.70;;;11.57;;
32613;SDS011;19031;51.400;6.770;2023-10-09T07:17:33;20.27;;;10.55;;
32613;SDS011;19031;51.400;6.770;2023-10-09T07:19:59;19.00;;;11.13;;
32613;SDS011;19031;51.400;6.770;2023-10-09T07:22:35;22.45;;;11.75;;
32613;SDS011;19031;51.400;6.770;2023-10-09T07:25:04;19.50;;;11.23;;
32613;SDS011;19031;51.400;6.770;2023-10-09T07:27:40;16.60;;;10.65;;
32613;SDS011;19031;51.400;6.770;2023-10-09T07:30:09;17.88;;;10.57;;
32613;SDS011;19031;51.400;6.770;2023-10-09T07:33:00;24.25;;;10.93;;
32613;SDS011;19031;51.400;6.770;2023-10-09T07:35:35;17.08;;;10.00;;
32613;SDS011;19031;51.400;6.770;2023-10-09T07:38:08;18.98;;;10.20;;
32613;SDS011;19031;51.400;6.770;2023-10-09T07:40:34;22.30;;;10.82;;
32613;SDS011;19031;51.400;6.770;2023-10-09T07:43:19;18.70;;;10.18;;
32613;SDS011;19031;51.400;6.770;2023-10-09T07:45:51;17.60;;;11.15;;
32613;SDS011;19031;51.400;6.770;2023-10-09T07:48:39;20.95;;;11.48;;
32613;SDS011;19031;51.400;6.770;2023-10-09T07:51:17;20.75;;;11.27;;
32613;SDS011;19031;51.400;6.770;2023-10-09T07:53:48;20.80;;;11.98;;
32613;SDS011;19031;51.400;6.770;2023-10-09T07:56:32;25.08;;;12.20;;
32613;SDS011;19031;51.400;6.770;2023-10-09T07:59:10;21.23;;;12.63;;
32613;SDS011;19031;51.400;6.770;2023-10-09T08:01:42;21.40;;;11.13;;
32613;SDS011;19031;51.400;6.770;2023-10-09T08:04:29;19.75;;;12.18;;
32613;SDS011;19031;51.400;6.770;2023-10-09T08:07:13;21.53;;;11.90;;
32613;SDS011;19031;51.400;6.770;2023-10-09T08:09:59;22.95;;;12.65;;
32613;SDS011;19031;51.400;6.770;2023-10-09T08:12:44;31.23;;;12.75;;
32613;SDS011;19031;51.400;6.770;2023-10-09T08:15:13;25.80;;;12.75;;
32613;SDS011;19031;51.400;6.770;2023-10-09T08:17:48;21.77;;;12.35;;
32613;SDS011;19031;51.400;6.770;2023-10-09T08:20:33;25.30;;;11.55;;
32613;SDS011;19031;51.400;6.770;2023-10-09T08:23:16;23.75;;;10.77;;
32613;SDS011;19031;51.400;6.770;2023-10-09T08:26:00;21.40;;;10.65;;
32613;SDS011;19031;51.400;6.770;2023-10-09T08:28:38;19.75;;;10.45;;
32613;SDS011;19031;51.400;6.770;2023-10-09T08:34:02;21.35;;;10.15;;
32613;SDS011;19031;51.400;6.770;2023-10-09T08:36:29;27.30;;;11.00;;
32613;SDS011;19031;51.400;6.770;2023-10-09T08:39:01;16.48;;;10.25;;
32613;SDS011;19031;51.400;6.770;2023-10-09T08:41:42;18.88;;;10.40;;
32613;SDS011;19031;51.400;6.770;2023-10-09T08:44:08;20.60;;;10.70;;
32613;SDS011;19031;51.400;6.770;2023-10-09T08:46:40;19.98;;;10.40;;
32613;SDS011;19031;51.400;6.770;2023-10-09T08:49:07;24.63;;;10.70;;
32613;SDS011;19031;51.400;6.770;2023-10-09T08:51:34;23.48;;;11.02;;
32613;SDS011;19031;51.400;6.770;2023-10-09T08:54:01;18.75;;;11.07;;
32613;SDS011;19031;51.400;6.770;2023-10-09T08:56:26;20.95;;;11.20;;
32613;SDS011;19031;51.400;6.770;2023-10-09T08:58:53;23.67;;;11.82;;
32613;SDS011;19031;51.400;6.770;2023-10-09T09:01:21;21.45;;;11.63;;
32613;SDS011;19031;51.400;6.770;2023-10-09T09:03:48;21.02;;;11.40;;
32613;SDS011;19031;51.400;6.770;2023-10-09T09:06:15;19.85;;;10.45;;
32613;SDS011;19031;51.400;6.770;2023-10-09T09:08:44;22.55;;;10.55;;
32613;SDS011;19031;51.400;6.770;2023-10-09T09:11:14;19.20;;;10.63;;
32613;SDS011;19031;51.400;6.770;2023-10-09T09:13:48;19.27;;;10.40;;
32613;SDS011;19031;51.400;6.770;2023-10-09T09:16:28;18.52;;;9.20;;
32613;SDS011;19031;51.400;6.770;2023-10-09T09:19:01;16.75;;;8.85;;
32613;SDS011;19031;51.400;6.770;2023-10-09T09:21:34;16.98;;;10.32;;
32613;SDS011;19031;51.400;6.770;2023-10-09T09:24:05;21.38;;;9.07;;
32613;SDS011;19031;51.400;6.770;2023-10-09T09:26:41;15.10;;;9.20;;
32613;SDS011;19031;51.400;6.770;2023-10-09T09:29:14;17.42;;;9.13;;
32613;SDS011;19031;51.400;6.770;2023-10-09T09:31:53;16.65;;;9.80;;
32613;SDS011;19031;51.400;6.770;2023-10-09T09:34:22;15.55;;;8.50;;
32613;SDS011;19031;51.400;6.770;2023-10-09T09:36:54;21.23;;;9.20;;
32613;SDS011;19031;51.400;6.770;2023-10-09T09:39:22;16.35;;;8.50;;
32613;SDS011;19031;51.400;6.770;2023-10-09T09:41:58;19.75;;;8.93;;
32613;SDS011;19031;51.400;6.770;2023-10-09T09:44:38;18.05;;;8.15;;
32613;SDS011;19031;51.400;6.770;2023-10-09T09:47:14;17.83;;;8.82;;
32613;SDS011;19031;51.400;6.770;2023-10-09T09:49:52;16.25;;;8.93;;
32613;SDS011;19031;51.400;6.770;2023-10-09T09:52:37;17.77;;;9.25;;
32613;SDS011;19031;51.400;6.770;2023-10-09T09:55:07;18.98;;;9.35;;
32613;SDS011;19031;51.400;6.770;2023-10-09T09:57:44;18.88;;;10.30;;
32613;SDS011;19031;51.400;6.770;2023-10-09T10:00:10;18.58;;;9.32;;
32613;SDS011;19031;51.400;6.770;2023-10-09T10:02:52;15.65;;;8.93;;
32613;SDS011;19031;51.400;6.770;2023-10-09T10:05:25;22.40;;;9.60;;
32613;SDS011;19031;51.400;6.770;2023-10-09T10:07:56;16.70;;;9.65;;
32613;SDS011;19031;51.400;6.770;2023-10-09T10:10:33;15.63;;;8.20;;
32613;SDS011;19031;51.400;6.770;2023-10-09T10:13:02;17.23;;;8.55;;
32613;SDS011;19031;51.400;6.770;2023-10-09T10:18:22;16.00;;;8.40;;
32613;SDS011;19031;51.400;6.770;2023-10-09T10:24:40;16.98;;;8.20;;
32613;SDS011;19031;51.400;6.770;2023-10-09T10:29:34;18.13;;;9.48;;
32613;SDS011;19031;51.400;6.770;2023-10-09T10:32:03;21.08;;;8.65;;
32613;SDS011;19031;51.400;6.770;2023-10-09T10:37:42;18.92;;;8.93;;
32613;SDS011;19031;51.400;6.770;2023-10-09T10:40:24;15.75;;;8.88;;
32613;SDS011;19031;51.400;6.770;2023-10-09T10:43:14;21.48;;;10.45;;
32613;SDS011;19031;51.400;6.770;2023-10-09T10:46:03;21.15;;;9.10;;
32613;SDS011;19031;51.400;6.770;2023-10-09T10:48:34;14.05;;;9.05;;
32613;SDS011;19031;51.400;6.770;2023-10-09T10:51:06;18.05;;;9.20;;
32613;SDS011;19031;51.400;6.770;2023-10-09T10:53:36;15.68;;;8.25;;
32613;SDS011;19031;51.400;6.770;2023-10-09T10:56:12;22.30;;;10.95;;
32613;SDS011;19031;51.400;6.770;2023-10-09T10:58:39;17.35;;;8.70;;
32613;SDS011;19031;51.400;6.770;2023-10-09T11:01:23;18.42;;;9.02;;
32613;SDS011;19031;51.400;6.770;2023-10-09T11:03:50;17.55;;;9.13;;
32613;SDS011;19031;51.400;6.770;2023-10-09T11:06:28;15.35;;;8.15;;
32613;SDS011;19031;51.400;6.770;2023-10-09T11:09:01;16.60;;;9.80;;
32613;SDS011;19031;51.400;6.770;2023-10-09T11:11:34;14.13;;;8.77;;
32613;SDS011;19031;51.400;6.770;2023-10-09T11:14:09;14.27;;;8.68;;
32613;SDS011;19031;51.400;6.770;2023-10-09T11:16:48;15.90;;;8.40;;
32613;SDS011;19031;51.400;6.770;2023-10-09T11:19:19;15.88;;;8.23;;
32613;SDS011;19031;51.400;6.770;2023-10-09T11:21:56;13.80;;;7.45;;
32613;SDS011;19031;51.400;6.770;2023-10-09T11:24:30;15.32;;;9.05;;
32613;SDS011;19031;51.400;6.770;2023-10-09T11:26:59;15.98;;;8.20;;
32613;SDS011;19031;51.400;6.770;2023-10-09T11:29:34;13.75;;;8.60;;
32613;SDS011;19031;51.400;6.770;2023-10-09T11:32:16;17.60;;;9.20;;
32613;SDS011;19031;51.400;6.770;2023-10-09T11:34:50;13.73;;;8.13;;
32613;SDS011;19031;51.400;6.770;2023-10-09T11:37:34;15.90;;;7.78;;
32613;SDS011;19031;51.400;6.770;2023-10-09T11:40:14;16.23;;;8.93;;
32613;SDS011;19031;51.400;6.770;2023-10-09T11:43:19;15.38;;;8.35;;
32613;SDS011;19031;51.400;6.770;2023-10-09T11:46:08;18.83;;;8.95;;
32613;SDS011;19031;51.400;6.770;2023-10-09T11:48:39;12.07;;;8.02;;
32613;SDS011;19031;51.400;6.770;2023-10-09T11:51:33;20.70;;;8.25;;
32613;SDS011;19031;51.400;6.770;2023-10-09T11:54:03;16.10;;;8.65;;
32613;SDS011;19031;51.400;6.770;2023-10-09T11:56:28;16.67;;;9.93;;
32613;SDS011;19031;51.400;6.770;2023-10-09T11:58:54;14.20;;;8.93;;
32613;SDS011;19031;51.400;6.770;2023-10-09T12:01:23;15.50;;;9.10;;
32613;SDS011;19031;51.400;6.770;2023-10-09T12:03:50;17.65;;;9.52;;
32613;SDS011;19031;51.400;6.770;2023-10-09T12:06:17;15.45;;;9.10;;
32613;SDS011;19031;51.400;6.770;2023-10-09T12:08:47;17.48;;;9.27;;
32613;SDS011;19031;51.400;6.770;2023-10-09T12:11:13;16.40;;;9.35;;
32613;SDS011;19031;51.400;6.770;2023-10-09T12:13:53;16.38;;;9.20;;
32613;SDS011;19031;51.400;6.770;2023-10-09T12:16:23;18.55;;;9.75;;
32613;SDS011;19031;51.400;6.770;2023-10-09T12:18:53;16.25;;;9.60;;
32613;SDS011;19031;51.400;6.770;2023-10-09T12:21:22;16.90;;;9.38;;
32613;SDS011;19031;51.400;6.770;2023-10-09T12:23:48;18.33;;;9.65;;
32613;SDS011;19031;51.400;6.770;2023-10-09T12:26:14;19.00;;;10.43;;
32613;SDS011;19031;51.400;6.770;2023-10-09T12:28:43;19.63;;;9.90;;
32613;SDS011;19031;51.400;6.770;2023-10-09T12:31:18;13.82;;;9.38;;
32613;SDS011;19031;51.400;6.770;2023-10-09T12:33:45;19.20;;;9.65;;
32613;SDS011;19031;51.400;6.770;2023-10-09T12:36:12;17.42;;;9.93;;
32613;SDS011;19031;51.400;6.770;2023-10-09T12:38:44;22.23;;;10.20;;
32613;SDS011;19031;51.400;6.770;2023-10-09T12:41:15;18.63;;;11.23;;
32613;SDS011;19031;51.400;6.770;2023-10-09T12:43:51;19.23;;;9.77;;
32613;SDS011;19031;51.400;6.770;2023-10-09T12:46:18;19.10;;;10.32;;
32613;SDS011;19031;51.400;6.770;2023-10-09T12:48:48;19.17;;;10.07;;
32613;SDS011;19031;51.400;6.770;2023-10-09T12:51:14;20.00;;;10.70;;
32613;SDS011;19031;51.400;6.770;2023-10-09T12:53:42;16.85;;;10.18;;
32613;SDS011;19031;51.400;6.770;2023-10-09T12:56:08;19.58;;;10.68;;
32613;SDS011;19031;51.400;6.770;2023-10-09T12:58:34;19.83;;;10.82;;
32613;SDS011;19031;51.400;6.770;2023-10-09T13:01:03;17.58;;;9.73;;
32613;SDS011;19031;51.400;6.770;2023-10-09T13:03:39;20.52;;;10.48;;
32613;SDS011;19031;51.400;6.770;2023-10-09T13:06:05;20.30;;;11.32;;
32613;SDS011;19031;51.400;6.770;2023-10-09T13:08:36;18.30;;;10.93;;
32613;SDS011;19031;51.400;6.770;2023-10-09T13:11:06;20.40;;;10.73;;
32613;SDS011;19031;51.400;6.770;2023-10-09T13:13:35;21.27;;;11.13;;
32613;SDS011;19031;51.400;6.770;2023-10-09T13:16:23;20.17;;;10.25;;
32613;SDS011;19031;51.400;6.770;2023-10-09T13:18:49;19.40;;;10.73;;
32613;SDS011;19031;51.400;6.770;2023-10-09T13:23:59;22.13;;;9.75;;
32613;SDS011;19031;51.400;6.770;2023-10-09T13:26:26;18.02;;;10.77;;
32613;SDS011;19031;51.400;6.770;2023-10-09T13:28:56;15.90;;;10.23;;
32613;SDS011;19031;51.400;6.770;2023-10-09T13:31:22;20.13;;;10.98;;
32613;SDS011;19031;51.400;6.770;2023-10-09T13:33:52;21.33;;;11.32;;
32613;SDS011;19031;51.400;6.770;2023-10-09T13:36:20;21.05;;;12.10;;
32613;SDS011;19031;51.400;6.770;2023-10-09T13:38:59;16.75;;;10.90;;
32613;SDS011;19031;51.400;6.770;2023-10-09T13:41:46;23.20;;;11.50;;
32613;SDS011;19031;51.400;6.770;2023-10-09T13:44:21;18.60;;;11.30;;
32613;SDS011;19031;51.400;6.770;2023-10-09T13:46:47;25.25;;;11.50;;
32613;SDS011;19031;51.400;6.770;2023-10-09T13:49:15;22.25;;;11.75;;
32613;SDS011;19031;51.400;6.770;2023-10-09T13:51:41;17.42;;;11.48;;
32613;SDS011;19031;51.400;6.770;2023-10-09T13:54:09;19.83;;;12.30;;
32613;SDS011;19031;51.400;6.770;2023-10-09T13:56:56;24.58;;;12.15;;
32613;SDS011;19031;51.400;6.770;2023-10-09T13:59:22;21.73;;;12.48;;
32613;SDS011;19031;51.400;6.770;2023-10-09T14:01:51;20.65;;;11.35;;
32613;SDS011;19031;51.400;6.770;2023-10-09T14:04:19;22.55;;;12.50;;
32613;SDS011;19031;51.400;6.770;2023-10-09T14:06:46;21.92;;;12.18;;
32613;SDS011;19031;51.400;6.770;2023-10-09T14:09:12;21.25;;;11.85;;
32613;SDS011;19031;51.400;6.770;2023-10-09T14:11:56;19.95;;;11.77;;
32613;SDS011;19031;51.400;6.770;2023-10-09T14:14:32;21.50;;;12.02;;
32613;SDS011;19031;51.400;6.770;2023-10-09T14:16:59;24.73;;;12.88;;
32613;SDS011;19031;51.400;6.770;2023-10-09T14:19:25;18.10;;;11.25;;
32613;SDS011;19031;51.400;6.770;2023-10-09T14:21:51;19.85;;;11.68;;
32613;SDS011;19031;51.400;6.770;2023-10-09T14:24:17;20.67;;;11.23;;
32613;SDS011;19031;51.400;6.770;2023-10-09T14:26:44;20.05;;;12.10;;
32613;SDS011;19031;51.400;6.770;2023-10-09T14:29:11;20.08;;;11.48;;
32613;SDS011;19031;51.400;6.770;2023-10-09T14:31:42;22.13;;;12.18;;
32613;SDS011;19031;51.400;6.770;2023-10-09T14:34:08;18.48;;;11.35;;
32613;SDS011;19031;51.400;6.770;2023-10-09T14:36:34;23.17;;;12.60;;
32613;SDS011;19031;51.400;6.770;2023-10-09T14:39:00;20.48;;;12.82;;
32613;SDS011;19031;51.400;6.770;2023-10-09T14:41:29;23.35;;;13.90;;
32613;SDS011;19031;51.400;6.770;2023-10-09T14:43:58;24.77;;;14.35;;
32613;SDS011;19031;51.400;6.770;2023-10-09T14:46:24;23.42;;;13.15;;
32613;SDS011;19031;51.400;6.770;2023-10-09T14:48:53;23.55;;;13.95;;
32613;SDS011;19031;51.400;6.770;2023-10-09T14:51:19;23.05;;;13.15;;
32613;SDS011;19031;51.400;6.770;2023-10-09T14:53:58;23.80;;;13.65;;
32613;SDS011;19031;51.400;6.770;2023-10-09T14:56:26;23.35;;;13.02;;
32613;SDS011;19031;51.400;6.770;2023-10-09T14:58:58;24.27;;;14.07;;
32613;SDS011;19031;51.400;6.770;2023-10-09T15:01:28;24.63;;;13.32;;
32613;SDS011;19031;51.400;6.770;2023-10-09T15:03:58;21.42;;;14.65;;
32613;SDS011;19031;51.400;6.770;2023-10-09T15:06:28;20.80;;;13.40;;
32613;SDS011;19031;51.400;6.770;2023-10-09T15:08:55;26.60;;;13.88;;
32613;SDS011;19031;51.400;6.770;2023-10-09T15:11:32;27.98;;;14.82;;
32613;SDS011;19031;51.400;6.770;2023-10-09T15:13:58;26.75;;;14.50;;
32613;SDS011;19031;51.400;6.770;2023-10-09T15:16:24;25.50;;;15.00;;
32613;SDS011;19031;51.400;6.770;2023-10-09T15:18:55;27.58;;;14.35;;
32613;SDS011;19031;51.400;6.770;2023-10-09T15:21:27;27.08;;;14.70;;
32613;SDS011;19031;51.400;6.770;2023-10-09T15:23:54;22.83;;;13.65;;
32613;SDS011;19031;51.400;6.770;2023-10-09T15:26:20;29.70;;;14.20;;
32613;SDS011;19031;51.400;6.770;2023-10-09T15:28:49;26.65;;;14.75;;